sensor_id;sensor_type;location;lat;lon;timestamp;P1;durP1;ratioP1;P2;durP2;ratioP2
20375;SDS011;10347;51.828;6.466;2022-12-10T00:00:49;22.30;;;12.57;;
20375;SDS011;10347;51.828;6.466;2022-12-10T00:03:16;26.38;;;13.85;;
20375;SDS011;10347;51.828;6.466;2022-12-10T00:05:41;21.42;;;12.60;;
20375;SDS011;10347;51.828;6.466;2022-12-10T00:08:07;26.80;;;14.27;;
20375;SDS011;10347;51.828;6.466;2022-12-10T00:10:33;25.45;;;13.70;;
20375;SDS011;10347;51.828;6.466;2022-12-10T00:12:58;24.15;;;13.50;;
20375;SDS011;10347;51.828;6.466;2022-12-10T00:15:24;22.58;;;13.55;;
20375;SDS011;10347;51.828;6.466;2022-12-10T00:17:49;27.58;;;14.60;;
20375;SDS011;10347;51.828;6.466;2022-12-10T00:20:15;21.08;;;12.93;;
20375;SDS011;10347;51.828;6.466;2022-12-10T00:22:40;25.42;;;13.52;;
20375;SDS011;10347;51.828;6.466;2022-12-10T00:25:06;27.15;;;14.98;;
20375;SDS011;10347;51.828;6.466;2022-12-10T00:27:32;25.20;;;14.55;;
20375;SDS011;10347;51.828;6.466;2022-12-10T00:29:57;23.98;;;13.27;;
20375;SDS011;10347;51.828;6.466;2022-12-10T00:32:26;23.58;;;13.68;;
20375;SDS011;10347;51.828;6.466;2022-12-10T00:34:51;25.15;;;14.85;;
20375;SDS011;10347;51.828;6.466;2022-12-10T00:37:17;23.67;;;13.20;;
20375;SDS011;10347;51.828;6.466;2022-12-10T00:39:43;25.83;;;14.45;;
20375;SDS011;10347;51.828;6.466;2022-12-10T00:42:08;25.38;;;13.95;;
20375;SDS011;10347;51.828;6.466;2022-12-10T00:44:34;25.25;;;14.30;;
20375;SDS011;10347;51.828;6.466;2022-12-10T00:46:59;24.08;;;13.25;;
20375;SDS011;10347;51.828;6.466;2022-12-10T00:49:25;29.23;;;14.27;;
20375;SDS011;10347;51.828;6.466;2022-12-10T00:51:50;24.48;;;13.30;;
20375;SDS011;10347;51.828;6.466;2022-12-10T00:54:16;27.52;;;14.73;;
20375;SDS011;10347;51.828;6.466;2022-12-10T00:56:41;26.38;;;14.50;;
20375;SDS011;10347;51.828;6.466;2022-12-10T00:59:07;24.73;;;14.05;;
20375;SDS011;10347;51.828;6.466;2022-12-10T01:01:34;26.20;;;14.63;;
20375;SDS011;10347;51.828;6.466;2022-12-10T01:04:06;26.85;;;14.10;;
20375;SDS011;10347;51.828;6.466;2022-12-10T01:06:40;26.52;;;13.57;;
20375;SDS011;10347;51.828;6.466;2022-12-10T01:09:09;27.85;;;14.75;;
20375;SDS011;10347;51.828;6.466;2022-12-10T01:11:38;29.17;;;14.60;;
20375;SDS011;10347;51.828;6.466;2022-12-10T01:14:06;24.65;;;13.93;;
20375;SDS011;10347;51.828;6.466;2022-12-10T01:16:33;27.75;;;14.65;;
20375;SDS011;10347;51.828;6.466;2022-12-10T01:18:58;27.35;;;14.23;;
20375;SDS011;10347;51.828;6.466;2022-12-10T01:21:26;25.25;;;13.80;;
20375;SDS011;10347;51.828;6.466;2022-12-10T01:23:53;28.83;;;14.35;;
20375;SDS011;10347;51.828;6.466;2022-12-10T01:26:20;27.83;;;14.90;;
20375;SDS011;10347;51.828;6.466;2022-12-10T01:28:50;28.15;;;15.02;;
20375;SDS011;10347;51.828;6.466;2022-12-10T01:31:21;25.52;;;13.70;;
20375;SDS011;10347;51.828;6.466;2022-12-10T01:33:49;25.63;;;13.88;;
20375;SDS011;10347;51.828;6.466;2022-12-10T01:36:22;23.50;;;13.55;;
20375;SDS011;10347;51.828;6.466;2022-12-10T01:38:50;27.65;;;14.98;;
20375;SDS011;10347;51.828;6.466;2022-12-10T01:41:27;30.45;;;16.25;;
20375;SDS011;10347;51.828;6.466;2022-12-10T01:43:58;26.63;;;14.75;;
20375;SDS011;10347;51.828;6.466;2022-12-10T01:46:51;34.22;;;17.17;;
20375;SDS011;10347;51.828;6.466;2022-12-10T01:49:19;28.17;;;14.82;;
20375;SDS011;10347;51.828;6.466;2022-12-10T01:51:48;28.85;;;15.82;;
20375;SDS011;10347;51.828;6.466;2022-12-10T01:54:17;25.23;;;13.95;;
20375;SDS011;10347;51.828;6.466;2022-12-10T01:56:46;24.45;;;12.95;;
20375;SDS011;10347;51.828;6.466;2022-12-10T01:59:29;24.65;;;13.48;;
20375;SDS011;10347;51.828;6.466;2022-12-10T02:02:12;24.63;;;12.80;;
20375;SDS011;10347;51.828;6.466;2022-12-10T02:04:50;24.45;;;13.40;;
20375;SDS011;10347;51.828;6.466;2022-12-10T02:07:22;23.67;;;12.85;;
20375;SDS011;10347;51.828;6.466;2022-12-10T02:10:02;25.50;;;13.35;;
20375;SDS011;10347;51.828;6.466;2022-12-10T02:15:09;24.75;;;12.75;;
20375;SDS011;10347;51.828;6.466;2022-12-10T02:17:40;22.65;;;12.65;;
20375;SDS011;10347;51.828;6.466;2022-12-10T02:20:28;26.08;;;13.65;;
20375;SDS011;10347;51.828;6.466;2022-12-10T02:23:02;25.38;;;13.43;;
20375;SDS011;10347;51.828;6.466;2022-12-10T02:25:37;25.95;;;13.20;;
20375;SDS011;10347;51.828;6.466;2022-12-10T02:28:33;22.25;;;12.35;;
20375;SDS011;10347;51.828;6.466;2022-12-10T02:31:04;24.90;;;13.30;;
20375;SDS011;10347;51.828;6.466;2022-12-10T02:33:31;23.05;;;13.18;;
20375;SDS011;10347;51.828;6.466;2022-12-10T02:36:02;25.88;;;13.60;;
20375;SDS011;10347;51.828;6.466;2022-12-10T02:38:30;25.33;;;14.30;;
20375;SDS011;10347;51.828;6.466;2022-12-10T02:41:00;25.40;;;13.15;;
20375;SDS011;10347;51.828;6.466;2022-12-10T02:43:29;25.58;;;13.50;;
20375;SDS011;10347;51.828;6.466;2022-12-10T02:45:57;27.20;;;14.38;;
20375;SDS011;10347;51.828;6.466;2022-12-10T02:48:24;28.33;;;14.30;;
20375;SDS011;10347;51.828;6.466;2022-12-10T02:50:51;29.25;;;15.07;;
20375;SDS011;10347;51.828;6.466;2022-12-10T02:53:16;27.73;;;15.30;;
20375;SDS011;10347;51.828;6.466;2022-12-10T02:58:28;30.30;;;15.35;;
20375;SDS011;10347;51.828;6.466;2022-12-10T03:01:16;29.83;;;15.80;;
20375;SDS011;10347;51.828;6.466;2022-12-10T03:04:00;30.27;;;15.60;;
20375;SDS011;10347;51.828;6.466;2022-12-10T03:06:36;27.08;;;14.52;;
20375;SDS011;10347;51.828;6.466;2022-12-10T03:09:08;30.33;;;15.75;;
20375;SDS011;10347;51.828;6.466;2022-12-10T03:11:39;29.90;;;15.00;;
20375;SDS011;10347;51.828;6.466;2022-12-10T03:14:13;26.25;;;14.60;;
20375;SDS011;10347;51.828;6.466;2022-12-10T03:16:54;26.35;;;13.80;;
20375;SDS011;10347;51.828;6.466;2022-12-10T03:19:23;25.15;;;13.95;;
20375;SDS011;10347;51.828;6.466;2022-12-10T03:21:53;26.95;;;14.15;;
20375;SDS011;10347;51.828;6.466;2022-12-10T03:24:20;27.23;;;14.77;;
20375;SDS011;10347;51.828;6.466;2022-12-10T03:26:47;27.35;;;14.50;;
20375;SDS011;10347;51.828;6.466;2022-12-10T03:29:22;25.98;;;14.23;;
20375;SDS011;10347;51.828;6.466;2022-12-10T03:31:51;26.23;;;14.10;;
20375;SDS011;10347;51.828;6.466;2022-12-10T03:34:18;26.60;;;14.20;;
20375;SDS011;10347;51.828;6.466;2022-12-10T03:36:45;27.73;;;14.43;;
20375;SDS011;10347;51.828;6.466;2022-12-10T03:39:11;26.92;;;14.60;;
20375;SDS011;10347;51.828;6.466;2022-12-10T03:41:37;28.90;;;14.80;;
20375;SDS011;10347;51.828;6.466;2022-12-10T03:44:03;31.52;;;16.05;;
20375;SDS011;10347;51.828;6.466;2022-12-10T03:46:29;31.67;;;16.35;;
20375;SDS011;10347;51.828;6.466;2022-12-10T03:48:56;28.20;;;14.93;;
20375;SDS011;10347;51.828;6.466;2022-12-10T03:51:22;36.50;;;17.05;;
20375;SDS011;10347;51.828;6.466;2022-12-10T03:53:48;29.88;;;15.40;;
20375;SDS011;10347;51.828;6.466;2022-12-10T03:56:14;32.83;;;16.02;;
20375;SDS011;10347;51.828;6.466;2022-12-10T03:58:40;34.67;;;16.80;;
20375;SDS011;10347;51.828;6.466;2022-12-10T04:01:06;31.90;;;16.90;;
20375;SDS011;10347;51.828;6.466;2022-12-10T04:03:35;33.13;;;17.27;;
20375;SDS011;10347;51.828;6.466;2022-12-10T04:06:07;29.98;;;15.75;;
20375;SDS011;10347;51.828;6.466;2022-12-10T04:08:34;33.85;;;15.48;;
20375;SDS011;10347;51.828;6.466;2022-12-10T04:11:07;32.85;;;16.75;;
20375;SDS011;10347;51.828;6.466;2022-12-10T04:13:34;34.63;;;16.73;;
20375;SDS011;10347;51.828;6.466;2022-12-10T04:16:20;33.38;;;17.33;;
20375;SDS011;10347;51.828;6.466;2022-12-10T04:18:57;33.55;;;17.27;;
20375;SDS011;10347;51.828;6.466;2022-12-10T04:21:24;34.88;;;17.63;;
20375;SDS011;10347;51.828;6.466;2022-12-10T04:24:09;33.70;;;17.85;;
20375;SDS011;10347;51.828;6.466;2022-12-10T04:26:55;29.80;;;15.93;;
20375;SDS011;10347;51.828;6.466;2022-12-10T04:29:23;33.00;;;16.77;;
20375;SDS011;10347;51.828;6.466;2022-12-10T04:31:53;36.10;;;18.00;;
20375;SDS011;10347;51.828;6.466;2022-12-10T04:34:20;34.88;;;17.58;;
20375;SDS011;10347;51.828;6.466;2022-12-10T04:36:46;34.33;;;17.48;;
20375;SDS011;10347;51.828;6.466;2022-12-10T04:39:12;32.00;;;16.17;;
20375;SDS011;10347;51.828;6.466;2022-12-10T04:41:39;37.05;;;17.67;;
20375;SDS011;10347;51.828;6.466;2022-12-10T04:44:05;33.15;;;16.92;;
20375;SDS011;10347;51.828;6.466;2022-12-10T04:46:31;37.70;;;18.25;;
20375;SDS011;10347;51.828;6.466;2022-12-10T04:48:56;37.67;;;18.67;;
20375;SDS011;10347;51.828;6.466;2022-12-10T04:51:22;36.25;;;18.70;;
20375;SDS011;10347;51.828;6.466;2022-12-10T04:53:47;34.78;;;17.67;;
20375;SDS011;10347;51.828;6.466;2022-12-10T04:56:13;38.88;;;19.17;;
20375;SDS011;10347;51.828;6.466;2022-12-10T04:58:39;39.67;;;18.77;;
20375;SDS011;10347;51.828;6.466;2022-12-10T05:01:05;35.33;;;18.52;;
20375;SDS011;10347;51.828;6.466;2022-12-10T05:03:33;36.88;;;18.05;;
20375;SDS011;10347;51.828;6.466;2022-12-10T05:06:06;36.92;;;17.63;;
20375;SDS011;10347;51.828;6.466;2022-12-10T05:08:34;33.90;;;16.85;;
20375;SDS011;10347;51.828;6.466;2022-12-10T05:11:01;34.30;;;18.35;;
20375;SDS011;10347;51.828;6.466;2022-12-10T05:13:28;36.83;;;17.77;;
20375;SDS011;10347;51.828;6.466;2022-12-10T05:15:53;35.78;;;18.02;;
20375;SDS011;10347;51.828;6.466;2022-12-10T05:18:19;38.05;;;18.55;;
20375;SDS011;10347;51.828;6.466;2022-12-10T05:20:45;36.90;;;17.95;;
20375;SDS011;10347;51.828;6.466;2022-12-10T05:23:10;38.97;;;18.70;;
20375;SDS011;10347;51.828;6.466;2022-12-10T05:26:27;33.28;;;17.13;;
20375;SDS011;10347;51.828;6.466;2022-12-10T05:28:51;36.72;;;18.60;;
20375;SDS011;10347;51.828;6.466;2022-12-10T05:31:21;41.90;;;19.35;;
20375;SDS011;10347;51.828;6.466;2022-12-10T05:33:51;37.17;;;18.92;;
20375;SDS011;10347;51.828;6.466;2022-12-10T05:36:19;36.60;;;18.70;;
20375;SDS011;10347;51.828;6.466;2022-12-10T05:38:45;34.13;;;17.90;;
20375;SDS011;10347;51.828;6.466;2022-12-10T05:41:13;35.40;;;17.85;;
20375;SDS011;10347;51.828;6.466;2022-12-10T05:43:40;34.75;;;18.40;;
20375;SDS011;10347;51.828;6.466;2022-12-10T05:46:08;33.53;;;17.83;;
20375;SDS011;10347;51.828;6.466;2022-12-10T05:48:36;37.58;;;18.42;;
20375;SDS011;10347;51.828;6.466;2022-12-10T05:51:05;35.65;;;18.27;;
20375;SDS011;10347;51.828;6.466;2022-12-10T05:53:32;37.55;;;18.27;;
20375;SDS011;10347;51.828;6.466;2022-12-10T05:55:59;36.38;;;17.75;;
20375;SDS011;10347;51.828;6.466;2022-12-10T05:58:26;49.45;;;22.88;;
20375;SDS011;10347;51.828;6.466;2022-12-10T06:00:52;46.35;;;21.58;;
20375;SDS011;10347;51.828;6.466;2022-12-10T06:03:18;38.30;;;19.83;;
20375;SDS011;10347;51.828;6.466;2022-12-10T06:05:43;40.92;;;19.13;;
20375;SDS011;10347;51.828;6.466;2022-12-10T06:08:09;38.17;;;18.70;;
20375;SDS011;10347;51.828;6.466;2022-12-10T06:10:34;38.63;;;18.65;;
20375;SDS011;10347;51.828;6.466;2022-12-10T06:13:01;42.88;;;20.02;;
20375;SDS011;10347;51.828;6.466;2022-12-10T06:15:27;40.85;;;20.67;;
20375;SDS011;10347;51.828;6.466;2022-12-10T06:17:54;46.97;;;21.92;;
20375;SDS011;10347;51.828;6.466;2022-12-10T06:20:20;50.35;;;24.30;;
20375;SDS011;10347;51.828;6.466;2022-12-10T06:22:46;48.45;;;22.13;;
20375;SDS011;10347;51.828;6.466;2022-12-10T06:25:11;41.42;;;19.73;;
20375;SDS011;10347;51.828;6.466;2022-12-10T06:27:38;38.80;;;19.02;;
20375;SDS011;10347;51.828;6.466;2022-12-10T06:30:03;45.83;;;20.58;;
20375;SDS011;10347;51.828;6.466;2022-12-10T06:32:29;45.38;;;21.27;;
20375;SDS011;10347;51.828;6.466;2022-12-10T06:34:55;41.53;;;20.58;;
20375;SDS011;10347;51.828;6.466;2022-12-10T06:37:20;44.17;;;21.40;;
20375;SDS011;10347;51.828;6.466;2022-12-10T06:39:46;48.30;;;22.50;;
20375;SDS011;10347;51.828;6.466;2022-12-10T06:42:11;58.53;;;24.80;;
20375;SDS011;10347;51.828;6.466;2022-12-10T06:44:37;53.00;;;25.00;;
20375;SDS011;10347;51.828;6.466;2022-12-10T06:47:02;63.42;;;27.10;;
20375;SDS011;10347;51.828;6.466;2022-12-10T06:49:28;60.08;;;26.45;;
20375;SDS011;10347;51.828;6.466;2022-12-10T06:51:53;57.50;;;27.35;;
20375;SDS011;10347;51.828;6.466;2022-12-10T06:54:19;60.35;;;27.52;;
20375;SDS011;10347;51.828;6.466;2022-12-10T06:56:45;63.15;;;28.23;;
20375;SDS011;10347;51.828;6.466;2022-12-10T06:59:10;56.47;;;26.55;;
20375;SDS011;10347;51.828;6.466;2022-12-10T07:01:37;56.75;;;26.48;;
20375;SDS011;10347;51.828;6.466;2022-12-10T07:04:02;68.78;;;29.17;;
20375;SDS011;10347;51.828;6.466;2022-12-10T07:06:30;79.05;;;31.35;;
20375;SDS011;10347;51.828;6.466;2022-12-10T07:08:56;69.25;;;29.40;;
20375;SDS011;10347;51.828;6.466;2022-12-10T07:11:23;66.05;;;27.48;;
20375;SDS011;10347;51.828;6.466;2022-12-10T07:13:49;63.30;;;28.17;;
20375;SDS011;10347;51.828;6.466;2022-12-10T07:16:16;63.08;;;27.42;;
20375;SDS011;10347;51.828;6.466;2022-12-10T07:18:44;63.88;;;28.48;;
20375;SDS011;10347;51.828;6.466;2022-12-10T07:21:17;67.43;;;28.52;;
20375;SDS011;10347;51.828;6.466;2022-12-10T07:23:45;65.05;;;27.65;;
20375;SDS011;10347;51.828;6.466;2022-12-10T07:26:11;73.60;;;28.02;;
20375;SDS011;10347;51.828;6.466;2022-12-10T07:28:36;66.57;;;28.48;;
20375;SDS011;10347;51.828;6.466;2022-12-10T07:31:03;74.18;;;30.75;;
20375;SDS011;10347;51.828;6.466;2022-12-10T07:33:30;66.57;;;29.00;;
20375;SDS011;10347;51.828;6.466;2022-12-10T07:35:55;64.75;;;29.73;;
20375;SDS011;10347;51.828;6.466;2022-12-10T07:38:22;57.85;;;26.13;;
20375;SDS011;10347;51.828;6.466;2022-12-10T07:40:48;66.47;;;29.90;;
20375;SDS011;10347;51.828;6.466;2022-12-10T07:43:14;72.80;;;29.95;;
20375;SDS011;10347;51.828;6.466;2022-12-10T07:45:39;75.90;;;30.33;;
20375;SDS011;10347;51.828;6.466;2022-12-10T07:48:05;65.18;;;27.65;;
20375;SDS011;10347;51.828;6.466;2022-12-10T07:50:33;62.63;;;26.42;;
20375;SDS011;10347;51.828;6.466;2022-12-10T07:52:59;73.25;;;29.88;;
20375;SDS011;10347;51.828;6.466;2022-12-10T07:55:24;82.32;;;31.98;;
20375;SDS011;10347;51.828;6.466;2022-12-10T07:57:50;81.95;;;31.80;;
20375;SDS011;10347;51.828;6.466;2022-12-10T08:00:15;74.20;;;30.52;;
20375;SDS011;10347;51.828;6.466;2022-12-10T08:02:41;60.90;;;27.20;;
20375;SDS011;10347;51.828;6.466;2022-12-10T08:05:07;67.22;;;27.88;;
20375;SDS011;10347;51.828;6.466;2022-12-10T08:07:33;74.32;;;30.25;;
20375;SDS011;10347;51.828;6.466;2022-12-10T08:09:58;69.70;;;29.60;;
20375;SDS011;10347;51.828;6.466;2022-12-10T08:12:24;66.25;;;27.63;;
20375;SDS011;10347;51.828;6.466;2022-12-10T08:14:50;85.03;;;31.35;;
20375;SDS011;10347;51.828;6.466;2022-12-10T08:17:15;78.35;;;31.42;;
20375;SDS011;10347;51.828;6.466;2022-12-10T08:19:41;78.15;;;30.60;;
20375;SDS011;10347;51.828;6.466;2022-12-10T08:22:07;65.97;;;27.58;;
20375;SDS011;10347;51.828;6.466;2022-12-10T08:24:32;74.00;;;30.33;;
20375;SDS011;10347;51.828;6.466;2022-12-10T08:26:58;67.05;;;27.83;;
20375;SDS011;10347;51.828;6.466;2022-12-10T08:29:23;74.05;;;29.30;;
20375;SDS011;10347;51.828;6.466;2022-12-10T08:31:49;79.53;;;29.50;;
20375;SDS011;10347;51.828;6.466;2022-12-10T08:34:15;71.28;;;28.10;;
20375;SDS011;10347;51.828;6.466;2022-12-10T08:36:42;85.07;;;31.10;;
20375;SDS011;10347;51.828;6.466;2022-12-10T08:39:08;73.88;;;27.55;;
20375;SDS011;10347;51.828;6.466;2022-12-10T08:41:35;81.90;;;30.42;;
20375;SDS011;10347;51.828;6.466;2022-12-10T08:44:01;77.47;;;28.65;;
20375;SDS011;10347;51.828;6.466;2022-12-10T08:46:27;78.85;;;29.30;;
20375;SDS011;10347;51.828;6.466;2022-12-10T08:48:53;87.43;;;31.00;;
20375;SDS011;10347;51.828;6.466;2022-12-10T08:51:19;73.80;;;29.58;;
20375;SDS011;10347;51.828;6.466;2022-12-10T08:53:46;82.30;;;31.15;;
20375;SDS011;10347;51.828;6.466;2022-12-10T08:56:12;85.55;;;31.95;;
20375;SDS011;10347;51.828;6.466;2022-12-10T08:58:38;94.80;;;33.95;;
20375;SDS011;10347;51.828;6.466;2022-12-10T09:01:11;92.30;;;34.65;;
20375;SDS011;10347;51.828;6.466;2022-12-10T09:03:41;90.03;;;31.88;;
20375;SDS011;10347;51.828;6.466;2022-12-10T09:06:08;108.40;;;37.70;;
20375;SDS011;10347;51.828;6.466;2022-12-10T09:08:36;84.07;;;31.48;;
20375;SDS011;10347;51.828;6.466;2022-12-10T09:11:08;101.25;;;33.88;;
20375;SDS011;10347;51.828;6.466;2022-12-10T09:13:37;93.20;;;32.92;;
20375;SDS011;10347;51.828;6.466;2022-12-10T09:16:03;94.70;;;33.40;;
20375;SDS011;10347;51.828;6.466;2022-12-10T09:18:28;98.80;;;36.15;;
20375;SDS011;10347;51.828;6.466;2022-12-10T09:20:54;113.55;;;37.38;;
20375;SDS011;10347;51.828;6.466;2022-12-10T09:23:20;97.40;;;32.92;;
20375;SDS011;10347;51.828;6.466;2022-12-10T09:25:45;96.90;;;34.03;;
20375;SDS011;10347;51.828;6.466;2022-12-10T09:28:11;101.47;;;35.08;;
20375;SDS011;10347;51.828;6.466;2022-12-10T09:30:36;90.32;;;32.85;;
20375;SDS011;10347;51.828;6.466;2022-12-10T09:33:02;91.22;;;33.08;;
20375;SDS011;10347;51.828;6.466;2022-12-10T09:35:28;95.63;;;34.67;;
20375;SDS011;10347;51.828;6.466;2022-12-10T09:37:53;88.70;;;30.92;;
20375;SDS011;10347;51.828;6.466;2022-12-10T09:40:22;87.00;;;31.95;;
20375;SDS011;10347;51.828;6.466;2022-12-10T09:43:00;94.93;;;34.75;;
